Airfield :
LOGIN :

Register | Disclaimer

   EN    FR    IT 

 










Legend :    VFR   Marginal VFR   IFR   Intensive IFR   Very Intensive IFR
Visi :
Ceiling :
>= 8 km
>= 3000ft
5 to 8 km
1000 to 3000 ft
1500m to 5 km
500 to 1000 ft
800 to 1500m
200 to 500 ft
< 800m
< 200 ft
Symbols :   Thunderstorms  Fog  Heavy snow  Heavy precipitations  Wind > 20 kt
SIGMETs :     Misc.  Thunderstorms  Icing  Turbulence  Mountain Waves  Volcanic Ashes






- Airport Elevation : 776 ft
- IATA code : RMS


ETAR - Ramstein Air Base

CURRENT METAR :
  • 270811Z 21007KT 9999 SCT013 BKN049 03/01 A2968 RMK AO2A SLP063 FZRANO $

EXPIRED METARs :
  • 270756Z 21007G14KT 9999 BKN012 03/01 A2969 RMK AO2A BKN V OVC SLP067 T00250012 FZRANO $
  • 270656Z 23007KT 9999 OVC012 02/02 A2971 RMK AO2A SLP075 T00220015 FZRANO
  • 270611Z 21007KT 9999 OVC011 02/02 A2972 RMK AO2A SLPNO FZRANO $
  • 270549Z 21007KT 9999 BKN010 OVC014 02/02 A2973 RMK AO2A RAE04B33E49 SLPNO FZRANO $

TAF AMD TAF ETAR
Valid from the 27 at 04:00 until the 28 at 08:00 UTC


270419Z 2704/2808 23009KT 9999 BKN015 OVC025 620204 QNH2961INS
TEMPO 2704/2707 9000 -SHRA
BECMG 2709/2710 20010G20KT 6000 -RASN SCT010 OVC015 650204 510003 QNH2949INS
BECMG 2711/2712 16010G20KT 3200 -SN BKN005 650206 510003 QNH2925INS
BECMG 2715/2716 30010G20KT 5000 -RASN BKN008 OVC010 620207 510003 QNH2925INS
BECMG 2717/2718 30012G25KT 9999 NSW SCT010 BKN020 620207 510003 QNH2934INS
TEMPO 2718/2721 29015G35KT 520004
BECMG 2723/2724 29010G20KT 9999 SCT020 510003 QNH2983INS
BECMG 2803/2804 26010KT 9999 BKN018 QNH2997INS TX03/2709Z TN00/2802Z



MET'MAP, your aeronautical weather chart ! - Copyright ORBIFLY December 2007 - Disclaimer

ORBIFLY MET'MAP TEAM :

Programming & Development : Alexandra Zaïnal
Concept & original design : Baudouin d'Aumeries
Assistance for programming : Marc-Olivier Méhu
Technical & hardware support : Manuel Goepfert

Contact : metmap@orbifly.com




SOURCES & CREDITS :

   NOAA